createdAt,value
2022-12-19T00:01:29.299Z,103.50
2022-12-19T00:06:43.808Z,101.40
2022-12-19T00:11:51.841Z,115.90
2022-12-19T00:16:58.915Z,89.60
2022-12-19T00:22:11.052Z,159.10
2022-12-19T00:27:18.503Z,126.00
2022-12-19T00:32:26.756Z,138.50
2022-12-19T00:37:33.789Z,94.80
2022-12-19T00:42:40.849Z,123.70
2022-12-19T00:47:49.012Z,120.40
2022-12-19T00:52:56.315Z,126.00
2022-12-19T00:58:03.381Z,100.20
2022-12-19T01:03:10.464Z,89.70
2022-12-19T01:08:20.591Z,83.40
2022-12-19T01:13:30.939Z,80.10
2022-12-19T01:18:38.437Z,76.80
2022-12-19T01:28:51.061Z,85.30
2022-12-19T01:34:00.161Z,87.70
2022-12-19T01:39:08.526Z,81.60
2022-12-19T01:44:15.640Z,79.20
2022-12-19T01:49:31.182Z,79.10
2022-12-19T01:54:42.233Z,55.90
2022-12-19T01:59:55.899Z,73.40
2022-12-19T02:05:04.684Z,70.50
2022-12-19T02:10:12.271Z,75.40
2022-12-19T02:20:53.628Z,64.20
2022-12-19T02:26:19.883Z,79.00
2022-12-19T02:31:30.823Z,82.50
2022-12-19T02:36:45.395Z,74.00
2022-12-19T02:41:59.482Z,81.50
2022-12-19T02:47:10.070Z,76.70
2022-12-19T02:52:47.436Z,66.60
2022-12-19T02:58:23.355Z,80.10
2022-12-19T03:03:37.541Z,85.10
2022-12-19T03:08:48.694Z,68.10
2022-12-19T03:14:02.045Z,89.60
2022-12-19T03:19:13.240Z,72.40
2022-12-19T03:24:21.255Z,64.90
2022-12-19T03:29:34.225Z,62.60
2022-12-19T03:34:46.388Z,58.00
2022-12-19T03:40:00.188Z,86.50
2022-12-19T03:45:10.342Z,80.00
2022-12-19T03:50:18.739Z,79.10
2022-12-19T03:55:32.839Z,51.10
2022-12-19T04:00:42.816Z,59.90
2022-12-19T04:05:51.989Z,56.70
2022-12-19T04:11:09.110Z,83.90
2022-12-19T04:16:24.879Z,78.40
2022-12-19T04:21:36.634Z,36.80
2022-12-19T04:26:46.322Z,63.80
2022-12-19T04:31:54.231Z,81.60
2022-12-19T04:37:02.562Z,54.10
2022-12-19T04:42:09.899Z,55.10
2022-12-19T04:47:17.262Z,49.10
2022-12-19T04:52:24.359Z,74.70
2022-12-19T04:57:33.599Z,63.80
2022-12-19T05:02:41.476Z,77.60
2022-12-19T05:07:48.870Z,75.80
2022-12-19T05:12:56.344Z,52.40
2022-12-19T05:23:16.789Z,74.00
2022-12-19T05:28:24.978Z,58.70
2022-12-19T05:33:34.580Z,80.50
2022-12-19T05:38:41.728Z,68.60
2022-12-19T05:43:52.936Z,83.20
2022-12-19T05:49:00.597Z,73.20
2022-12-19T05:54:08.244Z,59.00
2022-12-19T06:04:20.881Z,56.50
2022-12-19T06:09:28.278Z,71.10
2022-12-19T06:19:41.135Z,55.30
2022-12-19T06:24:48.409Z,66.20
2022-12-19T06:29:55.612Z,77.00
2022-12-19T06:35:04.802Z,47.50
2022-12-19T06:40:34.169Z,39.30
2022-12-19T06:45:41.314Z,68.80
2022-12-19T06:50:48.477Z,65.00
2022-12-19T07:01:04.016Z,53.00
2022-12-19T07:11:18.977Z,63.70
2022-12-19T07:21:35.002Z,57.60
2022-12-19T07:26:42.583Z,42.10
2022-12-19T07:31:52.658Z,55.30
2022-12-19T07:36:59.908Z,55.80
2022-12-19T07:42:07.435Z,49.50
2022-12-19T07:47:18.646Z,65.00
2022-12-19T07:52:25.727Z,63.80
2022-12-19T07:57:33.094Z,60.00
2022-12-19T08:02:40.514Z,49.40
2022-12-19T08:07:47.795Z,64.20
2022-12-19T08:12:55.220Z,53.60
2022-12-19T08:18:03.737Z,39.40
2022-12-19T08:23:18.905Z,61.70
2022-12-19T08:28:29.269Z,50.10
2022-12-19T08:33:43.691Z,54.30
2022-12-19T08:45:54.351Z,62.80
2022-12-19T08:51:04.329Z,61.30
2022-12-19T08:56:15.606Z,60.00
2022-12-19T09:01:24.181Z,79.30
2022-12-19T09:06:32.935Z,74.30
2022-12-19T09:11:47.592Z,56.20
2022-12-19T09:16:55.840Z,56.10
2022-12-19T09:22:06.411Z,86.30
2022-12-19T09:27:14.109Z,67.90
2022-12-19T09:32:22.226Z,60.10
2022-12-19T09:37:30.281Z,60.60
2022-12-19T09:42:48.483Z,72.50
2022-12-19T09:47:59.594Z,65.70
2022-12-19T09:53:14.602Z,66.80
2022-12-19T09:58:33.227Z,74.20
2022-12-19T10:03:45.122Z,75.80
2022-12-19T10:10:16.562Z,75.90
2022-12-19T10:14:38.219Z,72.90
2022-12-19T10:20:04.644Z,71.90
2022-12-19T10:25:27.924Z,76.40
2022-12-19T10:30:38.104Z,72.60
2022-12-19T10:35:49.438Z,78.70
2022-12-19T10:41:13.460Z,68.90
2022-12-19T10:46:26.914Z,76.90
2022-12-19T10:51:34.879Z,86.10
2022-12-19T10:56:42.006Z,70.60
2022-12-19T11:02:00.223Z,63.00
2022-12-19T11:07:21.795Z,94.50
2022-12-19T11:15:16.184Z,78.00
2022-12-19T11:26:19.620Z,84.90
2022-12-19T11:31:29.375Z,88.00
2022-12-19T11:44:43.514Z,90.60
2022-12-19T11:50:17.550Z,101.10
2022-12-19T11:55:27.966Z,84.80
2022-12-19T12:00:36.675Z,72.10
2022-12-19T12:05:48.278Z,82.70
2022-12-19T12:16:01.756Z,71.30
2022-12-19T12:29:02.418Z,88.90
2022-12-19T12:32:05.781Z,83.80
2022-12-19T12:41:20.759Z,74.00
2022-12-19T12:46:36.284Z,85.00
2022-12-19T12:51:44.865Z,84.60
2022-12-19T12:56:55.456Z,92.20
2022-12-19T13:02:16.634Z,92.70
2022-12-19T13:07:42.554Z,94.20
2022-12-19T13:13:09.278Z,84.50
2022-12-19T13:23:50.922Z,80.00
2022-12-19T13:34:20.389Z,68.80
2022-12-19T13:40:02.344Z,77.20
2022-12-19T13:45:08.792Z,87.90
2022-12-19T13:50:38.112Z,84.60
2022-12-19T13:55:45.448Z,93.00
2022-12-19T14:00:56.573Z,85.80
2022-12-19T14:06:22.836Z,74.40
2022-12-19T14:12:26.733Z,90.70
2022-12-19T14:17:10.493Z,85.80
2022-12-19T14:22:26.465Z,90.00
2022-12-19T14:28:20.605Z,76.30
2022-12-19T14:33:46.019Z,83.60
2022-12-19T14:39:20.789Z,72.40
2022-12-19T14:52:35.692Z,91.40
2022-12-19T14:54:05.505Z,81.30
2022-12-19T14:56:12.547Z,80.90
2022-12-19T15:07:08.388Z,101.30
2022-12-19T15:14:49.311Z,64.50
2022-12-19T15:17:48.140Z,102.30
2022-12-19T15:22:55.372Z,103.10
2022-12-19T15:28:03.234Z,142.80
2022-12-19T15:38:20.887Z,86.60
2022-12-19T15:44:01.875Z,85.90
2022-12-19T15:48:55.147Z,88.20
2022-12-19T15:54:38.388Z,102.00
2022-12-19T15:59:37.770Z,104.60
2022-12-19T16:04:45.902Z,105.10
2022-12-19T16:09:53.232Z,102.00
2022-12-19T16:15:02.772Z,105.30
2022-12-19T16:20:18.831Z,96.30
2022-12-19T16:25:33.563Z,99.10
2022-12-19T16:30:43.584Z,99.00
2022-12-19T16:36:07.556Z,83.00
2022-12-19T16:41:28.309Z,55.80
2022-12-19T16:46:35.853Z,100.00
2022-12-19T16:51:43.487Z,94.20
2022-12-19T16:56:52.926Z,108.30
2022-12-19T17:02:00.938Z,102.20
2022-12-19T17:07:13.175Z,103.70
2022-12-19T17:12:21.591Z,102.30
2022-12-19T17:17:28.754Z,90.60
2022-12-19T17:22:35.910Z,95.80
2022-12-19T17:27:43.993Z,99.00
2022-12-19T17:32:56.323Z,100.30
2022-12-19T17:38:06.210Z,104.00
2022-12-19T17:43:14.757Z,102.00
2022-12-19T17:48:28.897Z,99.20
2022-12-19T17:53:39.754Z,108.00
2022-12-19T17:58:48.749Z,115.90
2022-12-19T18:03:59.246Z,99.70
2022-12-19T18:09:10.242Z,98.70
2022-12-19T18:14:18.928Z,98.50
2022-12-19T18:19:30.770Z,97.80
2022-12-19T18:24:42.000Z,97.30
2022-12-19T18:29:50.630Z,98.90
2022-12-19T18:34:59.511Z,102.10
2022-12-19T18:40:19.539Z,108.90
2022-12-19T18:45:36.152Z,92.80
2022-12-19T18:50:51.694Z,96.30
2022-12-19T18:56:00.328Z,94.80
2022-12-19T19:01:15.838Z,93.20
2022-12-19T19:06:25.959Z,93.70
2022-12-19T19:11:34.147Z,107.60
2022-12-19T19:16:41.798Z,90.40
2022-12-19T19:21:50.257Z,94.60
2022-12-19T19:26:57.455Z,113.60
2022-12-19T19:32:04.562Z,114.20
2022-12-19T19:37:14.965Z,129.00
2022-12-19T19:42:22.049Z,118.00
2022-12-19T19:47:32.410Z,104.70
2022-12-19T19:52:40.463Z,96.50
2022-12-19T20:02:53.443Z,95.40
2022-12-19T20:08:00.685Z,109.40
2022-12-19T20:13:07.729Z,97.50
2022-12-19T20:18:15.323Z,100.50
2022-12-19T20:23:22.456Z,87.90
2022-12-19T20:28:30.135Z,95.10
2022-12-19T20:33:37.474Z,84.00
2022-12-19T20:38:45.119Z,104.90
2022-12-19T20:43:53.380Z,95.20
2022-12-19T20:49:01.423Z,86.00
2022-12-19T20:54:13.115Z,99.40
2022-12-19T20:59:20.853Z,84.90
2022-12-19T21:04:29.596Z,77.80
2022-12-19T21:09:37.318Z,95.40
2022-12-19T21:14:44.817Z,94.70
2022-12-19T21:19:52.339Z,67.90
2022-12-19T21:25:00.603Z,83.80
2022-12-19T21:30:12.301Z,64.80
2022-12-19T21:35:19.759Z,72.00
2022-12-19T21:40:27.207Z,75.20
2022-12-19T21:45:34.627Z,82.70
2022-12-19T21:50:41.917Z,81.90
2022-12-19T21:55:49.294Z,73.50
2022-12-19T22:01:18.683Z,69.30
2022-12-19T22:06:33.573Z,76.40
2022-12-19T22:11:59.937Z,66.40
2022-12-19T22:17:08.117Z,77.00
2022-12-19T22:22:15.342Z,75.30
2022-12-19T22:27:22.585Z,62.50
2022-12-19T22:32:30.914Z,63.40
2022-12-19T22:37:38.224Z,61.30
2022-12-19T22:42:45.580Z,62.50
2022-12-19T22:47:52.863Z,68.40
2022-12-19T22:53:00.477Z,65.20
2022-12-19T22:58:08.739Z,65.90
2022-12-19T23:03:19.273Z,57.70
2022-12-19T23:08:26.913Z,52.00
2022-12-19T23:13:34.185Z,59.90
2022-12-19T23:18:42.435Z,49.60
2022-12-19T23:23:52.064Z,59.10
2022-12-19T23:29:01.209Z,73.20
2022-12-19T23:34:08.495Z,60.70
2022-12-19T23:39:15.760Z,52.60
2022-12-19T23:44:22.977Z,53.30
2022-12-19T23:49:30.071Z,59.30
2022-12-19T23:54:37.405Z,52.00
2022-12-19T23:59:44.430Z,68.50
